sensor_id;sensor_type;location;lat;lon;timestamp;pressure;altitude;pressure_sealevel;temperature;humidity
36242;BME280;22283;42.748;12.732;2023-07-31T00:10:37;97878.34;;;21.11;69.28
36242;BME280;22283;42.748;12.732;2023-07-31T00:15:38;97879.44;;;20.87;74.42
36242;BME280;22283;42.748;12.732;2023-07-31T00:20:39;97866.13;;;20.56;76.32
36242;BME280;22283;42.748;12.732;2023-07-31T00:25:39;97874.22;;;20.48;77.01
36242;BME280;22283;42.748;12.732;2023-07-31T00:30:40;97870.28;;;20.36;72.31
36242;BME280;22283;42.748;12.732;2023-07-31T00:35:41;97863.44;;;20.56;68.69
36242;BME280;22283;42.748;12.732;2023-07-31T00:40:41;97862.97;;;20.53;68.33
36242;BME280;22283;42.748;12.732;2023-07-31T00:45:42;97857.84;;;20.35;70.69
36242;BME280;22283;42.748;12.732;2023-07-31T00:50:43;97860.50;;;20.20;70.36
36242;BME280;22283;42.748;12.732;2023-07-31T00:55:44;97871.41;;;20.19;71.67
36242;BME280;22283;42.748;12.732;2023-07-31T01:00:45;97876.75;;;20.04;72.66
36242;BME280;22283;42.748;12.732;2023-07-31T01:06:10;97867.00;;;19.80;75.50
36242;BME280;22283;42.748;12.732;2023-07-31T01:11:19;97855.25;;;19.81;74.08
36242;BME280;22283;42.748;12.732;2023-07-31T01:16:24;97849.75;;;19.74;73.15
36242;BME280;22283;42.748;12.732;2023-07-31T01:22:18;97852.84;;;19.86;70.47
36242;BME280;22283;42.748;12.732;2023-07-31T01:27:30;97840.41;;;19.93;69.82
36242;BME280;22283;42.748;12.732;2023-07-31T01:32:36;97839.34;;;19.71;72.75
36242;BME280;22283;42.748;12.732;2023-07-31T01:37:43;97834.59;;;19.50;74.37
36242;BME280;22283;42.748;12.732;2023-07-31T01:42:43;97829.56;;;19.47;74.78
36242;BME280;22283;42.748;12.732;2023-07-31T01:48:05;97818.13;;;19.53;73.20
36242;BME280;22283;42.748;12.732;2023-07-31T01:53:05;97821.50;;;19.47;74.30
36242;BME280;22283;42.748;12.732;2023-07-31T01:58:06;97833.44;;;19.45;74.92
36242;BME280;22283;42.748;12.732;2023-07-31T02:03:13;97832.56;;;19.21;77.72
36242;BME280;22283;42.748;12.732;2023-07-31T02:08:17;97817.88;;;18.92;79.59
36242;BME280;22283;42.748;12.732;2023-07-31T02:13:23;97817.22;;;18.90;80.56
36242;BME280;22283;42.748;12.732;2023-07-31T02:18:24;97814.06;;;18.87;80.72
36242;BME280;22283;42.748;12.732;2023-07-31T02:23:24;97811.91;;;18.82;80.47
36242;BME280;22283;42.748;12.732;2023-07-31T02:28:28;97799.84;;;18.78;81.49
36242;BME280;22283;42.748;12.732;2023-07-31T02:33:29;97799.38;;;18.58;81.96
36242;BME280;22283;42.748;12.732;2023-07-31T02:38:32;97814.28;;;18.44;83.62
36242;BME280;22283;42.748;12.732;2023-07-31T02:43:33;97826.19;;;18.50;82.92
36242;BME280;22283;42.748;12.732;2023-07-31T02:48:34;97815.47;;;18.50;81.51
36242;BME280;22283;42.748;12.732;2023-07-31T02:53:34;97834.22;;;18.50;81.37
36242;BME280;22283;42.748;12.732;2023-07-31T02:58:35;97825.66;;;18.55;79.69
36242;BME280;22283;42.748;12.732;2023-07-31T03:03:36;97827.19;;;18.57;79.35
36242;BME280;22283;42.748;12.732;2023-07-31T03:08:37;97832.88;;;18.54;78.79
36242;BME280;22283;42.748;12.732;2023-07-31T03:13:38;97822.97;;;18.55;77.66
36242;BME280;22283;42.748;12.732;2023-07-31T03:18:38;97832.56;;;18.49;78.80
36242;BME280;22283;42.748;12.732;2023-07-31T03:23:39;97821.84;;;18.49;77.46
36242;BME280;22283;42.748;12.732;2023-07-31T03:28:40;97820.47;;;18.45;77.69
36242;BME280;22283;42.748;12.732;2023-07-31T03:33:40;97816.81;;;18.46;77.94
36242;BME280;22283;42.748;12.732;2023-07-31T03:38:41;97814.16;;;18.30;78.89
36242;BME280;22283;42.748;12.732;2023-07-31T03:43:42;97813.31;;;18.37;77.49
36242;BME280;22283;42.748;12.732;2023-07-31T03:48:43;97803.06;;;18.33;78.08
36242;BME280;22283;42.748;12.732;2023-07-31T03:53:44;97808.41;;;18.41;78.01
36242;BME280;22283;42.748;12.732;2023-07-31T03:58:45;97815.47;;;18.42;77.60
36242;BME280;22283;42.748;12.732;2023-07-31T04:03:46;97823.84;;;18.14;79.14
36242;BME280;22283;42.748;12.732;2023-07-31T04:08:47;97809.97;;;18.19;78.53
36242;BME280;22283;42.748;12.732;2023-07-31T04:13:48;97818.31;;;18.24;79.13
36242;BME280;22283;42.748;12.732;2023-07-31T04:18:48;97807.78;;;18.31;78.01
36242;BME280;22283;42.748;12.732;2023-07-31T04:23:49;97809.75;;;18.37;78.43
36242;BME280;22283;42.748;12.732;2023-07-31T04:28:50;97809.09;;;18.51;77.03
36242;BME280;22283;42.748;12.732;2023-07-31T04:33:57;97813.41;;;18.85;74.79
36242;BME280;22283;42.748;12.732;2023-07-31T04:38:57;97811.06;;;20.52;66.00
36242;BME280;22283;42.748;12.732;2023-07-31T04:43:58;97799.66;;;21.97;59.23
36242;BME280;22283;42.748;12.732;2023-07-31T04:49:00;97808.16;;;23.34;54.23
36242;BME280;22283;42.748;12.732;2023-07-31T04:54:01;97790.31;;;24.21;51.32
36242;BME280;22283;42.748;12.732;2023-07-31T04:59:02;97811.50;;;25.03;49.78
36242;BME280;22283;42.748;12.732;2023-07-31T05:04:03;97794.81;;;25.65;48.46
36242;BME280;22283;42.748;12.732;2023-07-31T05:09:05;97778.34;;;26.05;46.94
36242;BME280;22283;42.748;12.732;2023-07-31T05:14:18;97778.97;;;26.07;46.93
36242;BME280;22283;42.748;12.732;2023-07-31T05:19:23;97770.59;;;26.83;45.16
36242;BME280;22283;42.748;12.732;2023-07-31T05:24:24;97778.19;;;27.36;43.94
36242;BME280;22283;42.748;12.732;2023-07-31T05:29:36;97780.69;;;26.76;45.16
36242;BME280;22283;42.748;12.732;2023-07-31T05:34:36;97767.44;;;27.05;45.00
36242;BME280;22283;42.748;12.732;2023-07-31T05:39:37;97774.75;;;27.89;44.32
36242;BME280;22283;42.748;12.732;2023-07-31T05:44:38;97779.69;;;28.23;42.76
36242;BME280;22283;42.748;12.732;2023-07-31T05:49:38;97794.84;;;27.88;43.79
36242;BME280;22283;42.748;12.732;2023-07-31T05:54:42;97795.41;;;27.79;44.54
36242;BME280;22283;42.748;12.732;2023-07-31T05:59:54;97796.06;;;27.92;44.18
36242;BME280;22283;42.748;12.732;2023-07-31T06:05:17;97802.25;;;27.33;45.23
36242;BME280;22283;42.748;12.732;2023-07-31T06:10:21;97805.41;;;27.11;45.44
36242;BME280;22283;42.748;12.732;2023-07-31T06:15:25;97807.81;;;26.76;46.17
36242;BME280;22283;42.748;12.732;2023-07-31T06:20:26;97810.56;;;26.94;45.91
36242;BME280;22283;42.748;12.732;2023-07-31T06:25:26;97816.25;;;26.68;46.68
36242;BME280;22283;42.748;12.732;2023-07-31T06:30:27;97822.38;;;26.57;46.22
36242;BME280;22283;42.748;12.732;2023-07-31T06:35:28;97821.09;;;26.84;45.83
36242;BME280;22283;42.748;12.732;2023-07-31T06:40:29;97828.50;;;26.77;46.17
36242;BME280;22283;42.748;12.732;2023-07-31T06:45:33;97816.88;;;26.88;46.21
36242;BME280;22283;42.748;12.732;2023-07-31T06:50:35;97811.16;;;26.78;46.12
36242;BME280;22283;42.748;12.732;2023-07-31T06:55:41;97819.34;;;27.15;45.29
36242;BME280;22283;42.748;12.732;2023-07-31T07:00:42;97824.19;;;26.88;45.61
36242;BME280;22283;42.748;12.732;2023-07-31T07:05:43;97818.84;;;27.00;45.03
36242;BME280;22283;42.748;12.732;2023-07-31T07:10:43;97825.69;;;27.27;44.65
36242;BME280;22283;42.748;12.732;2023-07-31T07:15:48;97827.50;;;27.15;44.15
36242;BME280;22283;42.748;12.732;2023-07-31T07:20:50;97823.16;;;27.32;44.73
36242;BME280;22283;42.748;12.732;2023-07-31T07:25:52;97825.25;;;27.49;44.26
36242;BME280;22283;42.748;12.732;2023-07-31T07:30:55;97834.75;;;27.76;42.67
36242;BME280;22283;42.748;12.732;2023-07-31T07:36:00;97822.13;;;28.12;41.81
36242;BME280;22283;42.748;12.732;2023-07-31T07:41:01;97828.25;;;28.49;41.16
36242;BME280;22283;42.748;12.732;2023-07-31T07:46:01;97828.09;;;28.32;42.16
36242;BME280;22283;42.748;12.732;2023-07-31T07:51:02;97821.31;;;28.88;41.05
36242;BME280;22283;42.748;12.732;2023-07-31T07:56:03;97823.22;;;29.00;40.95
36242;BME280;22283;42.748;12.732;2023-07-31T08:01:04;97826.31;;;29.15;40.98
36242;BME280;22283;42.748;12.732;2023-07-31T08:06:04;97821.06;;;29.77;40.11
36242;BME280;22283;42.748;12.732;2023-07-31T08:11:05;97807.63;;;29.87;39.22
36242;BME280;22283;42.748;12.732;2023-07-31T08:16:06;97809.09;;;29.78;39.39
36242;BME280;22283;42.748;12.732;2023-07-31T08:21:07;97803.44;;;29.68;39.20
36242;BME280;22283;42.748;12.732;2023-07-31T08:26:07;97796.03;;;29.80;38.15
36242;BME280;22283;42.748;12.732;2023-07-31T08:31:09;97790.63;;;29.97;38.36
36242;BME280;22283;42.748;12.732;2023-07-31T08:36:09;97778.06;;;30.42;37.76
36242;BME280;22283;42.748;12.732;2023-07-31T08:41:10;97776.38;;;30.24;36.01
36242;BME280;22283;42.748;12.732;2023-07-31T08:46:11;97784.34;;;30.25;35.45
36242;BME280;22283;42.748;12.732;2023-07-31T08:51:14;97786.31;;;30.47;35.04
36242;BME280;22283;42.748;12.732;2023-07-31T08:56:15;97778.63;;;30.44;34.90
36242;BME280;22283;42.748;12.732;2023-07-31T09:01:18;97783.25;;;30.60;33.21
36242;BME280;22283;42.748;12.732;2023-07-31T09:06:20;97772.22;;;31.05;34.42
36242;BME280;22283;42.748;12.732;2023-07-31T09:11:24;97771.00;;;30.79;32.84
36242;BME280;22283;42.748;12.732;2023-07-31T09:16:28;97786.59;;;30.45;33.25
36242;BME280;22283;42.748;12.732;2023-07-31T09:21:32;97772.69;;;30.47;33.54
36242;BME280;22283;42.748;12.732;2023-07-31T09:26:34;97777.41;;;30.34;33.57
36242;BME280;22283;42.748;12.732;2023-07-31T09:31:42;97769.88;;;30.58;33.47
36242;BME280;22283;42.748;12.732;2023-07-31T09:36:49;97770.31;;;30.72;33.80
36242;BME280;22283;42.748;12.732;2023-07-31T09:41:54;97766.25;;;31.08;33.68
36242;BME280;22283;42.748;12.732;2023-07-31T09:46:55;97781.28;;;31.11;33.28
36242;BME280;22283;42.748;12.732;2023-07-31T09:51:56;97785.16;;;31.15;31.98
36242;BME280;22283;42.748;12.732;2023-07-31T09:56:58;97778.44;;;31.67;31.83
36242;BME280;22283;42.748;12.732;2023-07-31T10:02:00;97777.34;;;31.68;32.89
36242;BME280;22283;42.748;12.732;2023-07-31T10:07:02;97756.09;;;31.97;32.11
36242;BME280;22283;42.748;12.732;2023-07-31T10:12:07;97762.09;;;31.94;32.37
36242;BME280;22283;42.748;12.732;2023-07-31T10:17:10;97752.28;;;32.30;32.10
36242;BME280;22283;42.748;12.732;2023-07-31T10:22:12;97746.16;;;32.50;31.04
36242;BME280;22283;42.748;12.732;2023-07-31T10:27:13;97731.88;;;32.85;30.58
36242;BME280;22283;42.748;12.732;2023-07-31T10:32:15;97731.25;;;33.15;30.78
36242;BME280;22283;42.748;12.732;2023-07-31T10:37:21;97729.84;;;33.08;29.88
36242;BME280;22283;42.748;12.732;2023-07-31T10:42:30;97724.81;;;33.52;29.72
36242;BME280;22283;42.748;12.732;2023-07-31T10:47:37;97719.94;;;33.95;29.36
36242;BME280;22283;42.748;12.732;2023-07-31T10:52:38;97716.66;;;33.88;29.36
36242;BME280;22283;42.748;12.732;2023-07-31T10:57:39;97708.38;;;33.62;29.42
36242;BME280;22283;42.748;12.732;2023-07-31T11:02:40;97721.41;;;33.29;30.49
36242;BME280;22283;42.748;12.732;2023-07-31T11:07:50;97712.94;;;33.31;30.45
36242;BME280;22283;42.748;12.732;2023-07-31T11:12:50;97723.84;;;32.73;31.52
36242;BME280;22283;42.748;12.732;2023-07-31T11:17:51;97717.56;;;32.78;31.97
36242;BME280;22283;42.748;12.732;2023-07-31T11:22:52;97703.19;;;32.93;30.30
36242;BME280;22283;42.748;12.732;2023-07-31T11:27:52;97708.78;;;32.71;31.28
36242;BME280;22283;42.748;12.732;2023-07-31T11:32:55;97700.03;;;32.31;32.01
36242;BME280;22283;42.748;12.732;2023-07-31T11:37:56;97697.22;;;32.26;32.41
36242;BME280;22283;42.748;12.732;2023-07-31T11:42:58;97695.72;;;32.08;33.25
36242;BME280;22283;42.748;12.732;2023-07-31T11:47:59;97685.28;;;32.00;33.63
36242;BME280;22283;42.748;12.732;2023-07-31T11:53:06;97675.28;;;31.57;34.02
36242;BME280;22283;42.748;12.732;2023-07-31T11:58:08;97673.84;;;31.81;34.28
36242;BME280;22283;42.748;12.732;2023-07-31T12:03:10;97670.91;;;32.20;33.47
36242;BME280;22283;42.748;12.732;2023-07-31T12:08:11;97656.22;;;32.31;33.50
36242;BME280;22283;42.748;12.732;2023-07-31T12:13:23;97660.31;;;32.34;34.24
36242;BME280;22283;42.748;12.732;2023-07-31T12:18:26;97659.19;;;32.25;33.87
36242;BME280;22283;42.748;12.732;2023-07-31T12:23:28;97649.25;;;32.14;34.14
36242;BME280;22283;42.748;12.732;2023-07-31T12:28:29;97639.56;;;32.01;34.17
36242;BME280;22283;42.748;12.732;2023-07-31T12:33:32;97634.16;;;32.11;33.38
36242;BME280;22283;42.748;12.732;2023-07-31T12:38:33;97633.13;;;32.17;33.37
36242;BME280;22283;42.748;12.732;2023-07-31T12:43:35;97625.94;;;32.06;32.18
36242;BME280;22283;42.748;12.732;2023-07-31T12:48:37;97624.50;;;32.36;31.79
36242;BME280;22283;42.748;12.732;2023-07-31T12:53:37;97608.44;;;32.49;31.02
36242;BME280;22283;42.748;12.732;2023-07-31T12:58:38;97603.41;;;32.36;29.18
36242;BME280;22283;42.748;12.732;2023-07-31T13:03:39;97593.56;;;32.35;29.27
36242;BME280;22283;42.748;12.732;2023-07-31T13:08:40;97596.44;;;32.55;29.81
36242;BME280;22283;42.748;12.732;2023-07-31T13:13:41;97585.50;;;32.66;28.11
36242;BME280;22283;42.748;12.732;2023-07-31T13:18:41;97588.69;;;32.42;28.02
36242;BME280;22283;42.748;12.732;2023-07-31T13:23:42;97573.94;;;32.48;28.89
36242;BME280;22283;42.748;12.732;2023-07-31T13:28:43;97584.13;;;32.63;28.58
36242;BME280;22283;42.748;12.732;2023-07-31T13:33:43;97566.63;;;32.74;28.44
36242;BME280;22283;42.748;12.732;2023-07-31T13:38:44;97577.91;;;32.88;26.58
36242;BME280;22283;42.748;12.732;2023-07-31T13:43:45;97571.03;;;32.80;27.59
36242;BME280;22283;42.748;12.732;2023-07-31T13:48:45;97570.59;;;33.14;26.92
36242;BME280;22283;42.748;12.732;2023-07-31T13:53:46;97569.00;;;33.23;26.21
36242;BME280;22283;42.748;12.732;2023-07-31T13:58:47;97553.59;;;33.02;26.39
36242;BME280;22283;42.748;12.732;2023-07-31T14:03:48;97549.22;;;33.21;27.05
36242;BME280;22283;42.748;12.732;2023-07-31T14:08:48;97548.09;;;32.97;26.29
36242;BME280;22283;42.748;12.732;2023-07-31T14:13:50;97547.28;;;32.96;26.34
36242;BME280;22283;42.748;12.732;2023-07-31T14:18:51;97530.88;;;33.07;26.56
36242;BME280;22283;42.748;12.732;2023-07-31T14:23:53;97533.91;;;33.15;26.58
36242;BME280;22283;42.748;12.732;2023-07-31T14:28:54;97518.81;;;33.13;26.35
36242;BME280;22283;42.748;12.732;2023-07-31T14:33:55;97518.53;;;33.09;26.75
36242;BME280;22283;42.748;12.732;2023-07-31T14:38:56;97520.16;;;33.10;26.28
36242;BME280;22283;42.748;12.732;2023-07-31T14:43:57;97507.03;;;33.07;27.10
36242;BME280;22283;42.748;12.732;2023-07-31T14:48:57;97502.63;;;33.06;26.75
36242;BME280;22283;42.748;12.732;2023-07-31T14:53:59;97514.16;;;33.13;26.45
36242;BME280;22283;42.748;12.732;2023-07-31T14:58:59;97515.28;;;33.22;26.50
36242;BME280;22283;42.748;12.732;2023-07-31T15:04:00;97517.44;;;33.05;25.49
36242;BME280;22283;42.748;12.732;2023-07-31T15:09:01;97510.56;;;33.18;26.10
36242;BME280;22283;42.748;12.732;2023-07-31T15:14:01;97513.34;;;33.33;26.45
36242;BME280;22283;42.748;12.732;2023-07-31T15:19:02;97507.59;;;33.19;26.90
36242;BME280;22283;42.748;12.732;2023-07-31T15:24:03;97496.06;;;33.12;26.87
36242;BME280;22283;42.748;12.732;2023-07-31T15:29:05;97487.84;;;33.07;26.67
36242;BME280;22283;42.748;12.732;2023-07-31T15:34:09;97494.94;;;32.98;27.04
36242;BME280;22283;42.748;12.732;2023-07-31T15:39:10;97494.94;;;32.98;27.29
36242;BME280;22283;42.748;12.732;2023-07-31T15:44:11;97478.50;;;32.98;26.69
36242;BME280;22283;42.748;12.732;2023-07-31T15:49:12;97477.38;;;32.89;26.71
36242;BME280;22283;42.748;12.732;2023-07-31T15:54:13;97475.97;;;32.76;26.65
36242;BME280;22283;42.748;12.732;2023-07-31T15:59:14;97477.06;;;32.70;26.30
36242;BME280;22283;42.748;12.732;2023-07-31T16:04:15;97474.06;;;32.81;26.36
36242;BME280;22283;42.748;12.732;2023-07-31T16:09:16;97464.22;;;32.75;26.26
36242;BME280;22283;42.748;12.732;2023-07-31T16:14:16;97466.66;;;32.72;26.75
36242;BME280;22283;42.748;12.732;2023-07-31T16:19:17;97465.25;;;32.54;27.20
36242;BME280;22283;42.748;12.732;2023-07-31T16:24:18;97473.72;;;32.47;26.54
36242;BME280;22283;42.748;12.732;2023-07-31T16:29:19;97471.53;;;32.49;27.05
36242;BME280;22283;42.748;12.732;2023-07-31T16:34:19;97463.56;;;32.43;27.43
36242;BME280;22283;42.748;12.732;2023-07-31T16:39:20;97475.00;;;32.29;27.87
36242;BME280;22283;42.748;12.732;2023-07-31T16:44:21;97488.59;;;32.14;27.92
36242;BME280;22283;42.748;12.732;2023-07-31T16:49:22;97482.00;;;32.05;27.83
36242;BME280;22283;42.748;12.732;2023-07-31T16:54:22;97476.75;;;31.93;28.06
36242;BME280;22283;42.748;12.732;2023-07-31T16:59:24;97482.44;;;31.87;28.44
36242;BME280;22283;42.748;12.732;2023-07-31T17:04:24;97482.63;;;31.75;28.55
36242;BME280;22283;42.748;12.732;2023-07-31T17:09:25;97480.38;;;31.67;29.26
36242;BME280;22283;42.748;12.732;2023-07-31T17:14:27;97481.28;;;31.77;29.86
36242;BME280;22283;42.748;12.732;2023-07-31T17:19:28;97481.56;;;31.81;29.15
36242;BME280;22283;42.748;12.732;2023-07-31T17:24:28;97484.53;;;31.74;30.12
36242;BME280;22283;42.748;12.732;2023-07-31T17:29:29;97485.75;;;31.51;30.14
36242;BME280;22283;42.748;12.732;2023-07-31T17:34:32;97491.81;;;31.26;31.80
36242;BME280;22283;42.748;12.732;2023-07-31T17:39:33;97487.50;;;31.03;32.02
36242;BME280;22283;42.748;12.732;2023-07-31T17:44:36;97481.03;;;30.82;31.83
36242;BME280;22283;42.748;12.732;2023-07-31T17:49:37;97488.88;;;30.74;32.60
36242;BME280;22283;42.748;12.732;2023-07-31T17:54:38;97481.13;;;30.66;33.11
36242;BME280;22283;42.748;12.732;2023-07-31T17:59:39;97487.72;;;30.48;32.71
36242;BME280;22283;42.748;12.732;2023-07-31T18:04:39;97493.53;;;30.29;33.15
36242;BME280;22283;42.748;12.732;2023-07-31T18:09:40;97495.38;;;30.07;33.84
36242;BME280;22283;42.748;12.732;2023-07-31T18:14:41;97498.59;;;29.82;34.97
36242;BME280;22283;42.748;12.732;2023-07-31T18:19:42;97491.16;;;29.44;36.59
36242;BME280;22283;42.748;12.732;2023-07-31T18:24:43;97498.16;;;29.06;37.42
36242;BME280;22283;42.748;12.732;2023-07-31T18:29:44;97505.44;;;28.72;38.70
36242;BME280;22283;42.748;12.732;2023-07-31T18:34:45;97505.91;;;28.28;39.86
36242;BME280;22283;42.748;12.732;2023-07-31T18:39:46;97505.97;;;27.81;40.41
36242;BME280;22283;42.748;12.732;2023-07-31T18:44:46;97516.00;;;27.57;41.28
36242;BME280;22283;42.748;12.732;2023-07-31T18:49:47;97508.91;;;27.33;41.67
36242;BME280;22283;42.748;12.732;2023-07-31T18:54:48;97514.81;;;27.00;41.79
36242;BME280;22283;42.748;12.732;2023-07-31T18:59:49;97519.34;;;26.76;42.58
36242;BME280;22283;42.748;12.732;2023-07-31T19:04:50;97527.59;;;26.69;42.35
36242;BME280;22283;42.748;12.732;2023-07-31T19:09:51;97541.09;;;26.57;42.40
36242;BME280;22283;42.748;12.732;2023-07-31T19:14:54;97533.19;;;26.37;42.31
36242;BME280;22283;42.748;12.732;2023-07-31T19:19:55;97541.63;;;26.11;43.02
36242;BME280;22283;42.748;12.732;2023-07-31T19:24:55;97556.50;;;25.83;43.40
36242;BME280;22283;42.748;12.732;2023-07-31T19:29:56;97548.00;;;25.73;43.29
36242;BME280;22283;42.748;12.732;2023-07-31T19:34:57;97550.69;;;25.55;43.49
36242;BME280;22283;42.748;12.732;2023-07-31T19:39:57;97555.91;;;25.49;43.22
36242;BME280;22283;42.748;12.732;2023-07-31T19:44:58;97542.94;;;25.33;43.52
36242;BME280;22283;42.748;12.732;2023-07-31T19:49:59;97540.94;;;25.22;43.00
36242;BME280;22283;42.748;12.732;2023-07-31T19:55:00;97549.81;;;24.97;43.63
36242;BME280;22283;42.748;12.732;2023-07-31T20:00:00;97564.34;;;24.71;43.95
36242;BME280;22283;42.748;12.732;2023-07-31T20:05:01;97571.69;;;24.58;43.95
36242;BME280;22283;42.748;12.732;2023-07-31T20:10:02;97572.97;;;24.48;44.24
36242;BME280;22283;42.748;12.732;2023-07-31T20:15:04;97568.84;;;24.33;43.96
36242;BME280;22283;42.748;12.732;2023-07-31T20:20:05;97582.59;;;24.24;43.97
36242;BME280;22283;42.748;12.732;2023-07-31T20:25:06;97573.03;;;24.22;43.93
36242;BME280;22283;42.748;12.732;2023-07-31T20:30:07;97584.31;;;24.12;44.11
36242;BME280;22283;42.748;12.732;2023-07-31T20:35:08;97589.09;;;23.90;44.56
36242;BME280;22283;42.748;12.732;2023-07-31T20:40:10;97584.34;;;23.79;45.06
36242;BME280;22283;42.748;12.732;2023-07-31T20:45:11;97583.94;;;23.82;44.87
36242;BME280;22283;42.748;12.732;2023-07-31T20:50:14;97578.34;;;23.77;45.10
36242;BME280;22283;42.748;12.732;2023-07-31T20:55:15;97579.78;;;23.73;45.84
36242;BME280;22283;42.748;12.732;2023-07-31T21:00:16;97582.88;;;23.56;45.98
36242;BME280;22283;42.748;12.732;2023-07-31T21:05:17;97582.25;;;23.54;45.84
36242;BME280;22283;42.748;12.732;2023-07-31T21:10:18;97575.00;;;23.75;45.92
36242;BME280;22283;42.748;12.732;2023-07-31T21:15:19;97578.84;;;24.19;45.42
36242;BME280;22283;42.748;12.732;2023-07-31T21:20:19;97571.31;;;24.34;46.02
36242;BME280;22283;42.748;12.732;2023-07-31T21:25:20;97566.78;;;24.28;47.39
36242;BME280;22283;42.748;12.732;2023-07-31T21:30:21;97570.47;;;24.47;46.37
36242;BME280;22283;42.748;12.732;2023-07-31T21:35:22;97556.81;;;24.15;46.51
36242;BME280;22283;42.748;12.732;2023-07-31T21:40:23;97575.38;;;24.12;47.92
36242;BME280;22283;42.748;12.732;2023-07-31T21:45:24;97586.19;;;23.98;48.18
36242;BME280;22283;42.748;12.732;2023-07-31T21:50:25;97587.06;;;23.66;48.82
36242;BME280;22283;42.748;12.732;2023-07-31T21:55:28;97603.44;;;23.44;49.54
36242;BME280;22283;42.748;12.732;2023-07-31T22:00:29;97598.41;;;23.28;50.14
36242;BME280;22283;42.748;12.732;2023-07-31T22:05:30;97607.16;;;23.43;50.69
36242;BME280;22283;42.748;12.732;2023-07-31T22:10:31;97613.41;;;23.50;50.58
36242;BME280;22283;42.748;12.732;2023-07-31T22:15:31;97609.66;;;23.45;51.17
36242;BME280;22283;42.748;12.732;2023-07-31T22:20:32;97608.84;;;23.58;51.94
36242;BME280;22283;42.748;12.732;2023-07-31T22:25:33;97607.19;;;23.56;51.67
36242;BME280;22283;42.748;12.732;2023-07-31T22:30:34;97603.41;;;23.31;52.93
36242;BME280;22283;42.748;12.732;2023-07-31T22:35:36;97610.69;;;23.30;52.83
36242;BME280;22283;42.748;12.732;2023-07-31T22:40:45;97607.56;;;23.27;53.49
36242;BME280;22283;42.748;12.732;2023-07-31T22:45:46;97610.66;;;23.11;54.42
36242;BME280;22283;42.748;12.732;2023-07-31T22:50:47;97608.94;;;22.96;55.29
36242;BME280;22283;42.748;12.732;2023-07-31T22:55:48;97611.25;;;22.93;55.97
36242;BME280;22283;42.748;12.732;2023-07-31T23:00:48;97606.19;;;22.83;57.31
36242;BME280;22283;42.748;12.732;2023-07-31T23:05:49;97601.97;;;22.67;58.50
36242;BME280;22283;42.748;12.732;2023-07-31T23:10:50;97589.97;;;22.76;58.57
36242;BME280;22283;42.748;12.732;2023-07-31T23:15:51;97585.38;;;22.57;59.57
36242;BME280;22283;42.748;12.732;2023-07-31T23:20:52;97593.16;;;22.39;60.89
36242;BME280;22283;42.748;12.732;2023-07-31T23:25:53;97585.84;;;22.26;62.88
36242;BME280;22283;42.748;12.732;2023-07-31T23:31:00;97580.56;;;22.11;63.64
36242;BME280;22283;42.748;12.732;2023-07-31T23:36:11;97571.81;;;22.02;64.36
36242;BME280;22283;42.748;12.732;2023-07-31T23:41:12;97564.22;;;21.84;65.22
36242;BME280;22283;42.748;12.732;2023-07-31T23:46:19;97568.31;;;21.74;65.14
36242;BME280;22283;42.748;12.732;2023-07-31T23:51:20;97574.13;;;21.49;65.04
36242;BME280;22283;42.748;12.732;2023-07-31T23:56:24;97574.22;;;21.34;66.26
